createdAt,value
2018-04-16T00:00:54.243Z,10.90
2018-04-16T00:03:20.613Z,10.90
2018-04-16T00:05:47.714Z,10.90
2018-04-16T00:08:14.003Z,10.90
2018-04-16T00:10:41.131Z,10.90
2018-04-16T00:13:07.361Z,10.90
2018-04-16T00:15:34.486Z,11.00
2018-04-16T00:18:00.719Z,11.00
2018-04-16T00:20:26.936Z,11.00
2018-04-16T00:22:53.223Z,10.90
2018-04-16T00:25:19.448Z,10.90
2018-04-16T00:27:45.652Z,10.90
2018-04-16T00:30:12.822Z,10.90
2018-04-16T00:32:45.558Z,10.90
2018-04-16T00:35:18.159Z,10.90
2018-04-16T00:37:51.234Z,10.90
2018-04-16T00:40:23.626Z,10.90
2018-04-16T00:42:56.812Z,10.90
2018-04-16T00:45:29.968Z,10.90
2018-04-16T00:48:03.026Z,10.90
2018-04-16T00:50:35.464Z,10.90
2018-04-16T00:53:07.880Z,11.00
2018-04-16T00:55:40.367Z,11.00
2018-04-16T00:58:12.737Z,11.00
2018-04-16T01:00:45.429Z,10.90
2018-04-16T01:03:17.843Z,10.90
2018-04-16T01:08:49.515Z,10.80
2018-04-16T01:11:21.929Z,10.80
2018-04-16T01:13:54.269Z,10.90
2018-04-16T01:16:26.738Z,11.00
2018-04-16T01:18:59.232Z,11.00
2018-04-16T01:21:31.517Z,10.90
2018-04-16T01:24:03.885Z,10.90
2018-04-16T01:26:36.341Z,10.80
2018-04-16T01:29:08.784Z,10.90
2018-04-16T01:34:45.089Z,10.80
2018-04-16T01:37:17.493Z,10.80
2018-04-16T01:39:50.066Z,10.80
2018-04-16T01:42:22.548Z,10.80
2018-04-16T01:44:55.077Z,10.90
2018-04-16T01:47:27.409Z,10.90
2018-04-16T01:49:59.799Z,11.00
2018-04-16T01:52:32.930Z,11.10
2018-04-16T01:55:05.355Z,11.00
2018-04-16T01:57:38.533Z,11.00
2018-04-16T02:00:11.605Z,10.90
2018-04-16T02:02:43.992Z,10.90
2018-04-16T02:05:16.381Z,10.90
2018-04-16T02:07:49.530Z,10.90
2018-04-16T02:10:21.941Z,10.90
2018-04-16T02:12:55.116Z,10.80
2018-04-16T02:15:27.429Z,10.80
2018-04-16T02:17:59.831Z,10.90
2018-04-16T02:20:32.257Z,10.90
2018-04-16T02:23:04.593Z,10.80
2018-04-16T02:25:36.845Z,10.80
2018-04-16T02:28:09.316Z,10.80
2018-04-16T02:30:41.791Z,10.80
2018-04-16T02:33:14.390Z,10.80
2018-04-16T02:35:46.736Z,10.80
2018-04-16T02:38:19.061Z,10.80
2018-04-16T02:40:51.385Z,10.70
2018-04-16T02:43:24.567Z,10.80
2018-04-16T02:45:56.907Z,10.80
2018-04-16T02:48:36.221Z,10.80
2018-04-16T02:51:08.914Z,10.80
2018-04-16T02:53:41.303Z,10.80
2018-04-16T02:56:13.909Z,10.80
2018-04-16T02:58:46.411Z,10.70
2018-04-16T03:01:19.609Z,10.60
2018-04-16T03:03:51.950Z,10.60
2018-04-16T03:06:24.520Z,10.60
2018-04-16T03:08:58.346Z,10.60
2018-04-16T03:11:31.476Z,10.60
2018-04-16T03:14:04.044Z,10.60
2018-04-16T03:16:36.441Z,10.60
2018-04-16T03:19:09.118Z,10.60
2018-04-16T03:21:41.649Z,10.60
2018-04-16T03:24:14.694Z,10.70
2018-04-16T03:30:00.973Z,10.70
2018-04-16T03:32:33.387Z,10.60
2018-04-16T03:35:05.866Z,10.60
2018-04-16T03:37:38.290Z,10.50
2018-04-16T03:40:10.636Z,10.60
2018-04-16T03:42:44.121Z,10.50
2018-04-16T03:45:16.458Z,10.50
2018-04-16T03:47:48.911Z,10.50
2018-04-16T03:50:21.131Z,10.50
2018-04-16T03:52:53.682Z,10.50
2018-04-16T03:58:24.739Z,10.40
2018-04-16T04:00:51.112Z,10.30
2018-04-16T04:03:18.256Z,10.30
2018-04-16T04:05:45.333Z,10.30
2018-04-16T04:08:11.743Z,10.30
2018-04-16T04:10:38.736Z,10.30
2018-04-16T04:13:04.955Z,10.20
2018-04-16T04:15:31.258Z,10.20
2018-04-16T04:17:57.520Z,10.20
2018-04-16T04:20:23.885Z,10.20
2018-04-16T04:23:02.285Z,10.20
2018-04-16T04:25:41.062Z,10.20
2018-04-16T04:28:19.708Z,10.10
2018-04-16T04:30:46.146Z,10.10
2018-04-16T04:33:12.475Z,10.10
2018-04-16T04:35:38.687Z,10.10
2018-04-16T04:38:04.985Z,10.00
2018-04-16T04:40:31.667Z,10.00
2018-04-16T04:42:57.940Z,10.00
2018-04-16T04:45:24.885Z,10.00
2018-04-16T04:47:51.225Z,10.00
2018-04-16T04:50:17.515Z,10.00
2018-04-16T04:52:43.827Z,10.00
2018-04-16T04:55:10.069Z,10.00
2018-04-16T04:57:37.724Z,10.10
2018-04-16T05:00:04.002Z,10.10
2018-04-16T05:02:30.278Z,10.20
2018-04-16T05:04:56.635Z,10.30
2018-04-16T05:07:23.648Z,10.40
2018-04-16T05:09:50.204Z,10.40
2018-04-16T05:12:16.783Z,10.40
2018-04-16T05:14:43.015Z,10.40
2018-04-16T05:17:09.254Z,10.40
2018-04-16T05:19:35.603Z,10.40
2018-04-16T05:22:01.856Z,10.50
2018-04-16T05:24:28.109Z,10.50
2018-04-16T05:26:54.349Z,10.50
2018-04-16T05:29:20.548Z,10.60
2018-04-16T05:31:47.564Z,10.70
2018-04-16T05:34:13.931Z,10.60
2018-04-16T05:36:41.176Z,10.60
2018-04-16T05:39:08.306Z,10.70
2018-04-16T05:41:35.125Z,10.70
2018-04-16T05:44:01.303Z,10.70
2018-04-16T05:46:28.269Z,10.70
2018-04-16T05:49:09.441Z,10.70
2018-04-16T05:51:35.733Z,10.70
2018-04-16T05:54:02.833Z,10.80
2018-04-16T05:56:29.106Z,10.70
2018-04-16T05:58:56.229Z,10.80
2018-04-16T06:01:22.476Z,10.80
2018-04-16T06:03:49.544Z,10.80
2018-04-16T06:06:16.654Z,10.80
2018-04-16T06:08:43.063Z,10.80
2018-04-16T06:11:09.263Z,10.90
2018-04-16T06:13:35.596Z,10.90
2018-04-16T06:16:02.032Z,10.90
2018-04-16T06:18:28.279Z,11.00
2018-04-16T06:20:54.630Z,11.00
2018-04-16T06:23:20.993Z,11.00
2018-04-16T06:25:48.097Z,11.00
2018-04-16T06:28:14.284Z,11.00
2018-04-16T06:30:40.612Z,11.00
2018-04-16T06:33:06.810Z,11.00
2018-04-16T06:35:33.022Z,11.10
2018-04-16T06:38:00.885Z,11.10
2018-04-16T06:40:27.104Z,11.20
2018-04-16T06:42:53.439Z,11.20
2018-04-16T06:45:19.836Z,11.20
2018-04-16T06:47:46.108Z,11.20
2018-04-16T06:50:13.970Z,11.20
2018-04-16T06:52:40.217Z,11.20
2018-04-16T06:55:06.409Z,11.30
2018-04-16T06:57:32.697Z,11.30
2018-04-16T06:59:58.959Z,11.40
2018-04-16T07:02:25.223Z,11.40
2018-04-16T07:04:52.517Z,11.60
2018-04-16T07:07:18.781Z,11.50
2018-04-16T07:09:45.097Z,11.60
2018-04-16T07:12:11.331Z,11.60
2018-04-16T07:14:37.616Z,11.70
2018-04-16T07:17:03.993Z,11.80
2018-04-16T07:19:30.374Z,11.80
2018-04-16T07:21:56.762Z,11.80
2018-04-16T07:24:23.144Z,11.90
2018-04-16T07:26:49.417Z,11.90
2018-04-16T07:29:15.743Z,11.90
2018-04-16T07:31:42.084Z,11.90
2018-04-16T07:34:08.346Z,11.90
2018-04-16T07:36:35.065Z,12.00
2018-04-16T07:39:02.110Z,12.00
2018-04-16T07:41:28.520Z,12.00
2018-04-16T07:43:54.802Z,12.10
2018-04-16T07:46:21.014Z,12.10
2018-04-16T07:48:48.042Z,12.20
2018-04-16T07:51:14.448Z,12.10
2018-04-16T07:53:40.684Z,12.20
2018-04-16T07:56:08.464Z,12.10
2018-04-16T07:58:34.678Z,12.10
2018-04-16T08:01:01.151Z,12.20
2018-04-16T08:03:28.113Z,12.30
2018-04-16T08:05:54.379Z,12.20
2018-04-16T08:08:21.423Z,12.30
2018-04-16T08:10:47.805Z,12.30
2018-04-16T08:13:14.291Z,12.30
2018-04-16T08:15:40.726Z,12.30
2018-04-16T08:18:07.087Z,12.40
2018-04-16T08:20:34.047Z,12.50
2018-04-16T08:23:00.293Z,12.40
2018-04-16T08:25:26.522Z,12.50
2018-04-16T08:27:52.807Z,12.60
2018-04-16T08:30:19.879Z,12.80
2018-04-16T08:32:46.253Z,12.80
2018-04-16T08:35:13.291Z,12.90
2018-04-16T08:37:39.570Z,13.00
2018-04-16T08:40:06.680Z,13.00
2018-04-16T08:42:32.998Z,13.00
2018-04-16T08:44:59.247Z,13.10
2018-04-16T08:47:25.513Z,13.10
2018-04-16T08:49:51.733Z,13.20
2018-04-16T08:52:18.966Z,13.30
2018-04-16T08:54:45.393Z,13.20
2018-04-16T08:57:11.669Z,13.30
2018-04-16T08:59:37.995Z,13.30
2018-04-16T09:02:04.255Z,13.30
2018-04-16T09:04:30.749Z,13.30
2018-04-16T09:06:56.969Z,13.30
2018-04-16T09:09:23.455Z,13.40
2018-04-16T09:11:51.331Z,13.50
2018-04-16T09:14:17.711Z,13.50
2018-04-16T09:16:43.988Z,13.60
2018-04-16T09:19:10.291Z,13.60
2018-04-16T09:21:36.646Z,13.70
2018-04-16T09:24:02.926Z,13.70
2018-04-16T09:26:29.130Z,13.70
2018-04-16T09:28:56.315Z,13.90
2018-04-16T09:31:22.713Z,13.90
2018-04-16T09:33:49.693Z,14.00
2018-04-16T09:36:16.075Z,14.00
2018-04-16T09:38:43.038Z,14.20
2018-04-16T09:41:10.061Z,14.30
2018-04-16T09:43:36.267Z,14.30
2018-04-16T09:46:02.510Z,14.50
2018-04-16T09:48:28.747Z,14.50
2018-04-16T09:50:55.667Z,14.60
2018-04-16T09:53:21.935Z,14.50
2018-04-16T09:55:49.056Z,14.60
2018-04-16T09:58:15.311Z,14.50
2018-04-16T10:00:47.772Z,14.50
2018-04-16T10:03:17.810Z,14.30
2018-04-16T10:05:44.138Z,14.30
2018-04-16T10:08:10.462Z,14.20
2018-04-16T10:10:37.714Z,14.00
2018-04-16T10:13:04.734Z,13.90
2018-04-16T10:15:30.950Z,13.90
2018-04-16T10:17:57.160Z,14.00
2018-04-16T10:20:23.817Z,14.00
2018-04-16T10:22:50.246Z,14.10
2018-04-16T10:25:16.528Z,14.20
2018-04-16T10:27:42.852Z,14.30
2018-04-16T10:30:09.160Z,14.30
2018-04-16T10:32:36.215Z,14.50
2018-04-16T10:35:02.734Z,14.50
2018-04-16T10:37:28.983Z,14.50
2018-04-16T10:39:55.315Z,14.50
2018-04-16T10:42:21.712Z,14.50
2018-04-16T10:44:47.921Z,14.50
2018-04-16T10:47:14.151Z,14.60
2018-04-16T10:49:40.592Z,14.70
2018-04-16T10:52:06.978Z,14.80
2018-04-16T10:54:33.230Z,14.90
2018-04-16T10:56:59.574Z,14.90
2018-04-16T10:59:26.028Z,15.00
2018-04-16T11:01:52.999Z,14.90
2018-04-16T11:04:19.325Z,14.90
2018-04-16T11:06:46.381Z,14.80
2018-04-16T11:09:12.711Z,14.80
2018-04-16T11:11:38.929Z,14.70
2018-04-16T11:14:05.142Z,14.70
2018-04-16T11:16:32.192Z,14.70
2018-04-16T11:18:59.403Z,14.70
2018-04-16T11:21:25.739Z,14.70
2018-04-16T11:23:51.954Z,14.80
2018-04-16T11:26:18.329Z,14.90
2018-04-16T11:28:45.303Z,15.10
2018-04-16T11:31:11.651Z,15.10
2018-04-16T11:33:37.944Z,15.10
2018-04-16T11:36:04.489Z,15.20
2018-04-16T11:38:30.755Z,15.30
2018-04-16T11:40:57.412Z,15.40
2018-04-16T11:43:23.697Z,15.40
2018-04-16T11:45:49.920Z,15.50
2018-04-16T11:48:16.161Z,15.60
2018-04-16T11:50:42.625Z,15.70
2018-04-16T11:53:08.937Z,15.70
2018-04-16T11:55:35.295Z,15.80
2018-04-16T11:58:02.307Z,15.70
2018-04-16T12:00:28.456Z,15.70
2018-04-16T12:02:54.783Z,15.70
2018-04-16T12:05:21.032Z,15.80
2018-04-16T12:07:48.037Z,16.00
2018-04-16T12:10:14.498Z,15.90
2018-04-16T12:12:40.806Z,16.00
2018-04-16T12:15:07.110Z,16.20
2018-04-16T12:17:33.349Z,16.30
2018-04-16T12:19:59.663Z,16.30
2018-04-16T12:22:40.817Z,16.20
2018-04-16T12:25:07.826Z,16.10
2018-04-16T12:27:34.032Z,16.10
2018-04-16T12:30:00.264Z,16.20
2018-04-16T12:32:26.552Z,16.30
2018-04-16T12:34:52.736Z,16.30
2018-04-16T12:37:19.079Z,16.50
2018-04-16T12:39:46.221Z,16.80
2018-04-16T12:42:12.524Z,16.80
2018-04-16T12:44:38.763Z,16.90
2018-04-16T12:47:05.910Z,17.00
2018-04-16T12:49:32.270Z,17.00
2018-04-16T12:51:59.239Z,17.00
2018-04-16T12:54:25.765Z,16.90
2018-04-16T12:56:52.059Z,16.90
2018-04-16T12:59:18.321Z,16.90
2018-04-16T13:01:44.526Z,16.90
2018-04-16T13:04:10.780Z,16.90
2018-04-16T13:06:37.845Z,17.10
2018-04-16T13:09:04.949Z,17.10
2018-04-16T13:11:32.016Z,17.20
2018-04-16T13:13:58.983Z,17.10
2018-04-16T13:16:25.278Z,17.10
2018-04-16T13:18:52.208Z,17.10
2018-04-16T13:21:18.478Z,17.10
2018-04-16T13:23:44.730Z,17.00
2018-04-16T13:26:11.005Z,17.00
2018-04-16T13:28:37.206Z,17.10
2018-04-16T13:31:03.627Z,17.10
2018-04-16T13:33:29.914Z,17.00
2018-04-16T13:35:56.225Z,17.00
2018-04-16T13:38:23.363Z,17.10
2018-04-16T13:40:49.872Z,17.10
2018-04-16T13:43:16.171Z,17.10
2018-04-16T13:45:42.531Z,17.00
2018-04-16T13:48:08.896Z,16.90
2018-04-16T13:50:35.946Z,16.90
2018-04-16T13:53:02.219Z,16.80
2018-04-16T13:55:28.496Z,16.80
2018-04-16T13:57:55.552Z,16.90
2018-04-16T14:00:22.522Z,16.90
2018-04-16T14:02:48.813Z,16.90
2018-04-16T14:05:15.759Z,16.90
2018-04-16T14:07:42.874Z,16.90
2018-04-16T14:10:09.220Z,16.90
2018-04-16T14:12:35.502Z,16.90
2018-04-16T14:15:02.589Z,17.00
2018-04-16T14:17:28.824Z,17.00
2018-04-16T14:19:55.052Z,17.00
2018-04-16T14:22:21.307Z,17.00
2018-04-16T14:24:48.284Z,17.00
2018-04-16T14:27:14.600Z,17.00
2018-04-16T14:29:40.789Z,17.10
2018-04-16T14:32:07.214Z,17.00
2018-04-16T14:34:33.634Z,17.00
2018-04-16T14:36:59.931Z,17.00
2018-04-16T14:39:26.399Z,17.10
2018-04-16T14:41:52.727Z,17.10
2018-04-16T14:44:19.030Z,17.10
2018-04-16T14:46:45.386Z,17.20
2018-04-16T14:49:11.715Z,17.20
2018-04-16T14:51:38.073Z,17.30
2018-04-16T14:54:05.034Z,17.30
2018-04-16T14:56:32.140Z,17.30
2018-04-16T14:58:58.467Z,17.20
2018-04-16T15:01:25.720Z,17.20
2018-04-16T15:03:52.179Z,17.30
2018-04-16T15:06:18.351Z,17.30
2018-04-16T15:08:44.658Z,17.30
2018-04-16T15:11:10.844Z,17.30
2018-04-16T15:13:37.218Z,17.20
2018-04-16T15:16:03.394Z,17.20
2018-04-16T15:18:29.622Z,17.20
2018-04-16T15:20:55.942Z,17.30
2018-04-16T15:23:22.194Z,17.30
2018-04-16T15:25:48.631Z,17.30
2018-04-16T15:28:14.831Z,17.40
2018-04-16T15:30:41.227Z,17.40
2018-04-16T15:33:07.488Z,17.60
2018-04-16T15:35:33.791Z,17.60
2018-04-16T15:38:07.203Z,17.60
2018-04-16T15:40:33.560Z,17.60
2018-04-16T15:43:00.015Z,17.70
2018-04-16T15:45:27.000Z,17.90
2018-04-16T15:47:53.458Z,17.80
2018-04-16T15:50:19.760Z,17.90
2018-04-16T15:52:46.193Z,17.90
2018-04-16T15:55:12.391Z,17.90
2018-04-16T15:57:39.467Z,17.90
2018-04-16T16:00:05.697Z,17.90
2018-04-16T16:02:31.961Z,17.90
2018-04-16T16:04:58.134Z,17.80
2018-04-16T16:07:24.387Z,17.80
2018-04-16T16:09:50.650Z,17.80
2018-04-16T16:12:24.297Z,17.80
2018-04-16T16:14:51.613Z,17.80
2018-04-16T16:17:18.608Z,17.60
2018-04-16T16:19:45.870Z,17.60
2018-04-16T16:22:12.262Z,17.50
2018-04-16T16:24:38.471Z,17.50
2018-04-16T16:27:05.738Z,17.40
2018-04-16T16:29:32.736Z,17.40
2018-04-16T16:31:59.030Z,17.40
2018-04-16T16:34:26.677Z,17.30
2018-04-16T16:36:52.959Z,17.30
2018-04-16T16:39:19.218Z,17.30
2018-04-16T16:41:46.328Z,17.10
2018-04-16T16:44:12.621Z,17.10
2018-04-16T16:46:39.027Z,17.00
2018-04-16T16:49:06.233Z,17.00
2018-04-16T16:51:32.472Z,17.00
2018-04-16T16:53:58.769Z,16.90
2018-04-16T16:56:25.089Z,16.80
2018-04-16T16:58:51.874Z,16.70
2018-04-16T17:01:18.495Z,16.70
2018-04-16T17:03:44.769Z,16.60
2018-04-16T17:06:11.776Z,16.40
2018-04-16T17:08:37.995Z,16.40
2018-04-16T17:11:04.275Z,16.30
2018-04-16T17:13:31.385Z,15.80
2018-04-16T17:15:57.661Z,15.80
2018-04-16T17:18:24.736Z,15.10
2018-04-16T17:20:51.089Z,15.00
2018-04-16T17:23:17.339Z,14.90
2018-04-16T17:25:43.791Z,14.60
2018-04-16T17:28:10.724Z,14.30
2018-04-16T17:30:37.595Z,14.10
2018-04-16T17:33:04.020Z,14.10
2018-04-16T17:35:30.268Z,14.00
2018-04-16T17:37:56.560Z,13.80
2018-04-16T17:40:23.614Z,13.60
2018-04-16T17:42:50.589Z,13.50
2018-04-16T17:45:17.606Z,13.50
2018-04-16T17:47:45.018Z,13.40
2018-04-16T17:50:11.220Z,13.30
2018-04-16T17:52:37.427Z,13.30
2018-04-16T17:55:03.745Z,13.20
2018-04-16T17:57:30.110Z,13.20
2018-04-16T17:59:56.315Z,13.10
2018-04-16T18:02:22.922Z,13.10
2018-04-16T18:04:49.118Z,13.00
2018-04-16T18:07:15.458Z,12.90
2018-04-16T18:09:42.151Z,12.90
2018-04-16T18:12:08.649Z,12.80
2018-04-16T18:14:35.798Z,12.70
2018-04-16T18:17:02.835Z,12.50
2018-04-16T18:19:29.359Z,12.50
2018-04-16T18:21:55.643Z,12.50
2018-04-16T18:24:22.248Z,12.40
2018-04-16T18:26:49.809Z,12.30
2018-04-16T18:29:17.747Z,12.20
2018-04-16T18:31:44.055Z,12.20
2018-04-16T18:34:10.475Z,12.20
2018-04-16T18:36:36.812Z,12.10
2018-04-16T18:39:03.272Z,12.10
2018-04-16T18:41:29.750Z,12.00
2018-04-16T18:43:56.238Z,12.00
2018-04-16T18:46:22.630Z,11.90
2018-04-16T18:48:48.869Z,11.90
2018-04-16T18:51:15.291Z,11.80
2018-04-16T18:53:41.818Z,11.70
2018-04-16T18:56:15.083Z,11.70
2018-04-16T18:58:42.381Z,11.70
2018-04-16T19:01:08.680Z,11.70
2018-04-16T19:03:35.636Z,11.70
2018-04-16T19:06:02.354Z,11.70
2018-04-16T19:08:28.687Z,11.70
2018-04-16T19:10:56.773Z,11.60
2018-04-16T19:13:22.995Z,11.60
2018-04-16T19:15:49.467Z,11.60
2018-04-16T19:18:16.937Z,11.60
2018-04-16T19:20:49.735Z,11.60
2018-04-16T19:23:16.086Z,11.50
2018-04-16T19:25:44.223Z,11.50
2018-04-16T19:28:16.745Z,11.40
2018-04-16T19:30:43.225Z,11.40
2018-04-16T19:33:15.773Z,11.40
2018-04-16T19:35:42.060Z,11.30
2018-04-16T19:38:09.097Z,11.20
2018-04-16T19:40:36.350Z,11.20
2018-04-16T19:43:03.437Z,11.10
2018-04-16T19:45:29.811Z,11.10
2018-04-16T19:47:56.123Z,11.00
2018-04-16T19:50:22.324Z,11.00
2018-04-16T19:52:48.848Z,10.90
2018-04-16T19:55:15.122Z,10.80
2018-04-16T19:57:47.606Z,10.70
2018-04-16T20:00:14.029Z,10.50
2018-04-16T20:02:46.688Z,10.50
2018-04-16T20:05:13.559Z,10.40
2018-04-16T20:07:39.819Z,10.30
2018-04-16T20:10:06.914Z,10.30
2018-04-16T20:12:33.208Z,10.30
2018-04-16T20:14:59.727Z,10.20
2018-04-16T20:17:26.029Z,10.10
2018-04-16T20:19:52.269Z,10.00
2018-04-16T20:22:18.516Z,10.00
2018-04-16T20:24:45.573Z,9.80
2018-04-16T20:27:11.839Z,9.80
2018-04-16T20:29:38.186Z,9.70
2018-04-16T20:32:04.509Z,9.70
2018-04-16T20:34:30.734Z,9.60
2018-04-16T20:36:57.112Z,9.60
2018-04-16T20:39:24.532Z,9.50
2018-04-16T20:41:52.250Z,9.40
2018-04-16T20:44:18.613Z,9.40
2018-04-16T20:46:44.876Z,9.40
2018-04-16T20:49:11.939Z,9.30
2018-04-16T20:51:38.219Z,9.30
2018-04-16T20:54:04.615Z,9.30
2018-04-16T20:56:30.917Z,9.20
2018-04-16T20:58:57.926Z,9.40
2018-04-16T21:01:25.185Z,9.40
2018-04-16T21:03:52.889Z,9.40
2018-04-16T21:06:19.120Z,9.40
2018-04-16T21:08:45.441Z,9.40
2018-04-16T21:11:12.646Z,9.50
2018-04-16T21:13:38.968Z,9.50
2018-04-16T21:16:06.065Z,9.50
2018-04-16T21:18:33.137Z,9.50
2018-04-16T21:20:59.457Z,9.50
2018-04-16T21:23:25.953Z,9.40
2018-04-16T21:25:53.041Z,9.50
2018-04-16T21:28:19.308Z,9.50
2018-04-16T21:30:45.498Z,9.50
2018-04-16T21:33:11.872Z,9.40
2018-04-16T21:35:38.104Z,9.40
2018-04-16T21:38:05.077Z,9.20
2018-04-16T21:40:32.150Z,9.10
2018-04-16T21:42:58.561Z,9.10
2018-04-16T21:45:25.822Z,9.00
2018-04-16T21:47:52.401Z,9.00
2018-04-16T21:50:18.641Z,8.90
2018-04-16T21:52:44.953Z,8.80
2018-04-16T21:55:11.217Z,8.70
2018-04-16T21:57:38.383Z,8.60
2018-04-16T22:00:04.874Z,8.50
2018-04-16T22:02:31.135Z,8.50
2018-04-16T22:04:58.339Z,8.40
2018-04-16T22:07:24.803Z,8.40
2018-04-16T22:09:51.136Z,8.30
2018-04-16T22:12:18.285Z,8.20
2018-04-16T22:14:45.297Z,8.10
2018-04-16T22:17:11.570Z,8.10
2018-04-16T22:19:38.724Z,8.00
2018-04-16T22:22:05.189Z,8.00
2018-04-16T22:24:31.493Z,7.90
2018-04-16T22:26:57.736Z,7.90
2018-04-16T22:29:24.024Z,7.80
2018-04-16T22:31:51.074Z,7.70
2018-04-16T22:34:18.106Z,7.70
2018-04-16T22:36:44.575Z,7.70
2018-04-16T22:39:10.968Z,7.60
2018-04-16T22:41:37.402Z,7.60
2018-04-16T22:44:03.687Z,7.60
2018-04-16T22:46:29.910Z,7.50
2018-04-16T22:48:56.235Z,7.40
2018-04-16T22:51:22.505Z,7.40
2018-04-16T22:53:48.825Z,7.30
2018-04-16T22:56:15.377Z,7.30
2018-04-16T22:58:41.622Z,7.20
2018-04-16T23:01:08.744Z,7.10
2018-04-16T23:03:35.100Z,7.10
2018-04-16T23:06:02.237Z,7.10
2018-04-16T23:08:29.423Z,7.00
2018-04-16T23:10:55.793Z,7.00
2018-04-16T23:13:22.003Z,7.00
2018-04-16T23:15:48.874Z,7.00
2018-04-16T23:18:15.945Z,6.90
2018-04-16T23:20:42.901Z,6.90
2018-04-16T23:23:09.839Z,6.80
2018-04-16T23:25:37.048Z,6.80
2018-04-16T23:28:03.456Z,6.80
2018-04-16T23:30:29.872Z,6.80
2018-04-16T23:32:56.363Z,6.80
2018-04-16T23:35:22.589Z,6.70
2018-04-16T23:37:48.899Z,6.60
2018-04-16T23:40:15.276Z,6.60
2018-04-16T23:42:42.410Z,6.60
2018-04-16T23:45:09.338Z,6.50
2018-04-16T23:47:35.684Z,6.50
2018-04-16T23:50:02.737Z,6.40
2018-04-16T23:52:29.759Z,6.40
2018-04-16T23:54:56.809Z,6.30
2018-04-16T23:57:23.515Z,6.30
2018-04-16T23:59:49.806Z,6.30
